createdAt,value
2023-02-14T00:01:21.043Z,79.62
2023-02-14T00:05:21.471Z,79.85
2023-02-14T00:09:24.954Z,80.18
2023-02-14T00:13:25.314Z,80.12
2023-02-14T00:17:25.662Z,80.72
2023-02-14T00:21:26.466Z,80.02
2023-02-14T00:25:29.427Z,80.18
2023-02-14T00:29:35.270Z,79.98
2023-02-14T00:33:38.292Z,79.39
2023-02-14T00:37:39.311Z,79.52
2023-02-14T00:41:43.297Z,79.05
2023-02-14T00:45:43.859Z,79.04
2023-02-14T00:49:44.206Z,78.91
2023-02-14T00:53:45.604Z,78.66
2023-02-14T00:57:48.724Z,78.52
2023-02-14T01:01:51.331Z,78.22
2023-02-14T01:05:53.341Z,78.19
2023-02-14T01:09:53.882Z,77.62
2023-02-14T01:14:00.464Z,78.05
2023-02-14T01:18:02.937Z,77.82
2023-02-14T01:22:03.587Z,77.87
2023-02-14T01:26:08.478Z,77.81
2023-02-14T01:30:14.166Z,77.45
2023-02-14T01:34:14.386Z,77.03
2023-02-14T01:38:14.890Z,77.38
2023-02-14T01:42:15.332Z,77.77
2023-02-14T01:46:18.933Z,77.79
2023-02-14T01:50:25.773Z,77.62
2023-02-14T01:54:30.668Z,77.52
2023-02-14T01:58:36.709Z,77.65
2023-02-14T02:02:39.809Z,77.06
2023-02-14T02:06:46.282Z,76.60
2023-02-14T02:10:46.651Z,76.19
2023-02-14T02:14:48.058Z,76.29
2023-02-14T02:19:12.799Z,76.44
2023-02-14T02:24:00.226Z,77.04
2023-02-14T02:28:40.345Z,76.90
2023-02-14T02:33:15.771Z,78.17
2023-02-14T02:37:41.776Z,80.18
2023-02-14T02:41:58.013Z,81.46
2023-02-14T02:46:17.489Z,81.87
2023-02-14T02:50:40.882Z,82.41
2023-02-14T02:54:52.224Z,82.99
2023-02-14T02:58:59.856Z,83.53
2023-02-14T03:03:14.886Z,84.82
2023-02-14T03:07:29.159Z,84.66
2023-02-14T03:11:33.085Z,84.69
2023-02-14T03:15:50.141Z,84.86
2023-02-14T03:20:18.186Z,84.78
2023-02-14T03:24:31.034Z,85.59
2023-02-14T03:28:45.671Z,85.50
2023-02-14T03:32:54.686Z,85.11
2023-02-14T03:37:02.171Z,85.59
2023-02-14T03:41:08.545Z,85.88
2023-02-14T03:45:25.916Z,84.54
2023-02-14T03:49:32.903Z,85.10
2023-02-14T03:53:39.605Z,85.45
2023-02-14T03:57:52.645Z,86.07
2023-02-14T04:02:02.781Z,86.74
2023-02-14T04:06:04.229Z,87.92
2023-02-14T04:10:04.575Z,86.66
2023-02-14T04:14:05.165Z,86.57
2023-02-14T04:18:20.651Z,86.71
2023-02-14T04:22:22.109Z,86.36
2023-02-14T04:26:22.368Z,86.25
2023-02-14T04:30:23.958Z,86.71
2023-02-14T04:34:27.364Z,86.06
2023-02-14T04:38:27.864Z,86.27
2023-02-14T04:42:28.650Z,86.35
2023-02-14T04:46:28.878Z,86.00
2023-02-14T04:50:32.125Z,85.58
2023-02-14T04:54:35.309Z,85.73
2023-02-14T04:58:36.052Z,85.69
2023-02-14T05:02:36.387Z,85.58
2023-02-14T05:06:39.692Z,85.61
2023-02-14T05:10:40.025Z,85.21
2023-02-14T05:14:40.313Z,84.35
2023-02-14T05:18:40.701Z,84.73
2023-02-14T05:22:43.679Z,84.74
2023-02-14T05:26:44.008Z,85.10
2023-02-14T05:30:44.765Z,84.67
2023-02-14T05:34:45.171Z,84.48
2023-02-14T05:38:48.821Z,84.42
2023-02-14T05:42:49.331Z,83.80
2023-02-14T05:46:49.729Z,84.09
2023-02-14T05:50:50.171Z,83.48
2023-02-14T05:54:53.598Z,83.03
2023-02-14T05:58:54.240Z,82.75
2023-02-14T06:02:54.838Z,82.55
2023-02-14T06:06:55.280Z,82.87
2023-02-14T06:10:58.881Z,83.05
2023-02-14T06:14:59.490Z,83.56
2023-02-14T06:19:00.073Z,84.06
2023-02-14T06:23:01.145Z,84.05
2023-02-14T06:27:05.321Z,84.21
2023-02-14T06:31:05.912Z,84.16
2023-02-14T06:35:06.833Z,84.63
2023-02-14T06:39:11.696Z,85.27
2023-02-14T06:43:14.933Z,86.03
2023-02-14T06:47:15.431Z,85.68
2023-02-14T06:51:16.585Z,86.19
2023-02-14T06:55:16.925Z,85.16
2023-02-14T06:59:20.082Z,85.35
2023-02-14T07:03:20.810Z,85.27
2023-02-14T07:07:21.154Z,85.08
2023-02-14T07:11:21.799Z,84.99
2023-02-14T07:15:24.894Z,85.23
2023-02-14T07:19:25.375Z,84.54
2023-02-14T07:23:26.875Z,84.47
2023-02-14T07:27:27.649Z,84.26
2023-02-14T07:31:30.970Z,83.82
2023-02-14T07:35:31.469Z,84.26
2023-02-14T07:39:32.232Z,82.98
2023-02-14T07:43:34.657Z,82.94
2023-02-14T07:47:37.664Z,83.25
2023-02-14T07:51:38.158Z,83.41
2023-02-14T07:55:39.740Z,82.46
2023-02-14T07:59:40.504Z,82.46
2023-02-14T08:03:49.623Z,84.01
2023-02-14T08:07:50.572Z,83.44
2023-02-14T08:12:03.603Z,83.92
2023-02-14T08:16:11.833Z,84.16
2023-02-14T08:20:16.522Z,83.71
2023-02-14T08:24:17.328Z,83.34
2023-02-14T08:28:18.324Z,83.14
2023-02-14T08:32:21.204Z,82.40
2023-02-14T08:36:24.464Z,80.73
2023-02-14T08:40:25.182Z,81.11
2023-02-14T08:44:25.737Z,80.73
2023-02-14T08:48:27.105Z,80.48
2023-02-14T08:52:30.296Z,81.03
2023-02-14T08:56:30.659Z,80.36
2023-02-14T09:00:31.341Z,79.84
2023-02-14T09:04:31.901Z,79.02
2023-02-14T09:08:35.176Z,79.19
2023-02-14T09:12:35.590Z,77.84
2023-02-14T09:16:36.196Z,76.98
2023-02-14T09:20:36.831Z,77.57
2023-02-14T09:24:42.497Z,78.51
2023-02-14T09:28:43.321Z,78.65
2023-02-14T09:32:44.028Z,78.15
2023-02-14T09:36:44.606Z,77.59
2023-02-14T09:40:51.343Z,77.44
2023-02-14T09:44:58.857Z,77.40
2023-02-14T09:49:01.386Z,76.35
2023-02-14T09:53:06.237Z,76.25
2023-02-14T09:57:21.475Z,76.55
2023-02-14T10:01:28.534Z,76.49
2023-02-14T10:05:40.151Z,75.33
2023-02-14T10:10:03.137Z,74.13
2023-02-14T10:14:17.694Z,74.26
2023-02-14T10:18:24.788Z,74.01
2023-02-14T10:22:34.733Z,73.80
2023-02-14T10:26:41.510Z,72.55
2023-02-14T10:31:01.657Z,71.19
2023-02-14T10:35:09.302Z,72.27
2023-02-14T10:39:35.666Z,72.59
2023-02-14T10:43:51.389Z,72.47
2023-02-14T10:48:06.450Z,71.05
2023-02-14T10:52:21.003Z,69.99
2023-02-14T10:56:29.477Z,68.94
2023-02-14T11:00:36.436Z,69.44
2023-02-14T11:04:39.760Z,69.15
2023-02-14T11:08:43.465Z,69.26
2023-02-14T11:12:44.849Z,69.61
2023-02-14T11:16:45.317Z,72.51
2023-02-14T11:21:05.183Z,72.94
2023-02-14T11:25:21.601Z,71.35
2023-02-14T11:29:31.908Z,72.62
2023-02-14T11:33:41.241Z,71.67
2023-02-14T11:37:53.691Z,72.46
2023-02-14T11:41:56.940Z,73.36
2023-02-14T11:46:10.842Z,72.77
2023-02-14T11:50:27.042Z,73.38
2023-02-14T11:54:37.856Z,71.27
2023-02-14T11:58:43.666Z,71.88
2023-02-14T12:02:49.111Z,71.37
2023-02-14T12:06:50.576Z,70.79
2023-02-14T12:11:06.008Z,70.12
2023-02-14T12:15:34.498Z,73.05
2023-02-14T12:19:45.324Z,71.67
2023-02-14T12:23:56.299Z,69.49
2023-02-14T12:28:07.892Z,68.84
2023-02-14T12:32:28.517Z,69.98
2023-02-14T12:36:50.504Z,69.67
2023-02-14T12:41:08.425Z,68.59
2023-02-14T12:45:23.425Z,68.51
2023-02-14T12:50:02.457Z,69.63
2023-02-14T12:54:30.861Z,71.42
2023-02-14T12:58:51.058Z,72.54
2023-02-14T13:03:31.040Z,71.36
2023-02-14T13:07:55.794Z,70.79
2023-02-14T13:12:11.263Z,70.86
2023-02-14T13:16:25.834Z,70.56
2023-02-14T13:20:52.495Z,69.87
2023-02-14T13:24:59.921Z,70.14
2023-02-14T13:29:06.714Z,69.78
2023-02-14T13:33:17.260Z,69.42
2023-02-14T13:37:24.330Z,68.78
2023-02-14T13:41:26.915Z,68.94
2023-02-14T13:45:58.557Z,69.33
2023-02-14T13:50:02.407Z,68.00
2023-02-14T13:54:05.894Z,70.70
2023-02-14T13:58:09.739Z,71.06
2023-02-14T14:02:35.690Z,70.08
2023-02-14T14:07:21.158Z,70.28
2023-02-14T14:12:03.199Z,69.98
2023-02-14T14:16:31.175Z,70.03
2023-02-14T14:20:52.688Z,70.13
2023-02-14T14:25:00.912Z,70.75
2023-02-14T14:29:04.388Z,70.33
2023-02-14T14:33:17.531Z,70.64
2023-02-14T14:37:22.227Z,71.93
2023-02-14T14:41:23.684Z,72.21
2023-02-14T14:45:31.981Z,72.88
2023-02-14T14:49:36.543Z,72.83
2023-02-14T14:53:47.345Z,74.86
2023-02-14T14:57:54.749Z,74.64
2023-02-14T15:01:58.604Z,74.22
2023-02-14T15:06:11.454Z,74.34
2023-02-14T15:10:30.391Z,74.49
2023-02-14T15:14:36.743Z,74.41
2023-02-14T15:18:40.692Z,74.88
2023-02-14T15:22:47.567Z,75.36
2023-02-14T15:26:53.459Z,75.78
2023-02-14T15:31:02.101Z,75.74
2023-02-14T15:35:09.978Z,76.50
2023-02-14T15:39:17.025Z,77.14
2023-02-14T15:43:25.206Z,77.93
2023-02-14T15:47:27.871Z,79.22
2023-02-14T15:51:36.572Z,79.09
2023-02-14T15:55:39.443Z,79.08
2023-02-14T15:59:45.440Z,79.37
2023-02-14T16:03:57.509Z,79.09
2023-02-14T16:08:07.991Z,79.30
2023-02-14T16:12:35.253Z,79.53
2023-02-14T16:17:06.393Z,80.26
2023-02-14T16:21:25.751Z,79.52
2023-02-14T16:25:28.978Z,79.33
2023-02-14T16:29:30.743Z,80.16
2023-02-14T16:33:37.340Z,80.39
2023-02-14T16:37:38.417Z,82.55
2023-02-14T16:41:48.148Z,82.09
2023-02-14T16:45:49.876Z,81.93
2023-02-14T16:49:50.795Z,81.48
2023-02-14T16:53:52.003Z,81.13
2023-02-14T16:57:56.534Z,81.71
2023-02-14T17:01:57.335Z,81.92
2023-02-14T17:06:01.482Z,82.06
2023-02-14T17:10:08.818Z,81.37
2023-02-14T17:14:15.523Z,81.18
2023-02-14T17:18:20.761Z,80.97
2023-02-14T17:22:21.327Z,81.23
2023-02-14T17:26:21.897Z,80.84
2023-02-14T17:30:25.922Z,81.06
2023-02-14T17:34:26.638Z,82.06
2023-02-14T17:38:27.272Z,82.01
2023-02-14T17:42:29.183Z,82.21
2023-02-14T17:46:34.364Z,82.05
2023-02-14T17:50:34.765Z,81.88
2023-02-14T17:54:40.002Z,82.63
2023-02-14T17:58:41.969Z,82.41
2023-02-14T18:02:46.408Z,82.83
2023-02-14T18:06:47.357Z,81.82
2023-02-14T18:10:48.158Z,81.70
2023-02-14T18:14:48.593Z,81.47
2023-02-14T18:18:52.106Z,81.90
2023-02-14T18:22:52.494Z,81.95
2023-02-14T18:26:53.733Z,82.07
2023-02-14T18:30:57.473Z,82.34
2023-02-14T18:35:02.295Z,82.36
2023-02-14T18:39:03.591Z,82.19
2023-02-14T18:43:06.887Z,81.90
2023-02-14T18:47:08.148Z,82.41
2023-02-14T18:51:16.126Z,83.78
2023-02-14T18:55:16.926Z,84.38
2023-02-14T18:59:20.809Z,85.15
2023-02-14T19:03:25.169Z,86.65
2023-02-14T19:07:30.043Z,86.02
2023-02-14T19:11:34.345Z,85.27
2023-02-14T19:15:34.720Z,84.88
2023-02-14T19:19:35.021Z,84.11
2023-02-14T19:23:38.854Z,83.92
2023-02-14T19:27:40.040Z,84.30
2023-02-14T19:31:44.135Z,84.38
2023-02-14T19:35:45.348Z,84.57
2023-02-14T19:39:48.869Z,84.72
2023-02-14T19:43:51.417Z,85.02
2023-02-14T19:47:52.030Z,84.53
2023-02-14T19:51:54.435Z,85.98
2023-02-14T19:55:57.667Z,86.03
2023-02-14T19:59:58.167Z,86.49
2023-02-14T20:03:58.588Z,85.74
2023-02-14T20:07:59.183Z,85.69
2023-02-14T20:12:04.288Z,85.10
2023-02-14T20:16:04.567Z,84.72
2023-02-14T20:20:05.055Z,85.50
2023-02-14T20:24:07.652Z,85.01
2023-02-14T20:28:11.357Z,84.94
2023-02-14T20:32:12.336Z,84.97
2023-02-14T20:36:14.500Z,85.51
2023-02-14T20:40:16.307Z,85.46
2023-02-14T20:44:22.592Z,86.06
2023-02-14T20:48:23.461Z,85.52
2023-02-14T20:52:24.582Z,84.56
2023-02-14T20:56:26.588Z,84.48
2023-02-14T21:00:30.154Z,85.44
2023-02-14T21:04:34.455Z,85.14
2023-02-14T21:08:34.884Z,84.83
2023-02-14T21:12:35.405Z,84.88
2023-02-14T21:16:39.093Z,84.57
2023-02-14T21:20:40.897Z,84.78
2023-02-14T21:24:41.274Z,85.50
2023-02-14T21:28:41.701Z,85.65
2023-02-14T21:32:45.279Z,85.79
2023-02-14T21:36:46.072Z,84.74
2023-02-14T21:40:47.968Z,85.80
2023-02-14T21:45:00.719Z,86.40
2023-02-14T21:49:19.852Z,87.29
2023-02-14T21:53:20.393Z,86.78
2023-02-14T21:57:21.172Z,87.16
2023-02-14T22:01:24.643Z,86.38
2023-02-14T22:05:28.887Z,86.38
2023-02-14T22:09:29.347Z,85.35
2023-02-14T22:13:30.147Z,86.07
2023-02-14T22:17:30.915Z,86.04
2023-02-14T22:21:37.801Z,86.40
2023-02-14T22:25:38.201Z,85.73
2023-02-14T22:29:39.071Z,84.99
2023-02-14T22:33:39.921Z,85.11
2023-02-14T22:37:43.119Z,85.52
2023-02-14T22:41:43.502Z,85.06
2023-02-14T22:45:44.261Z,85.24
2023-02-14T22:49:44.736Z,85.30
2023-02-14T22:53:48.425Z,85.24
2023-02-14T22:57:48.871Z,84.84
2023-02-14T23:01:51.177Z,85.50
2023-02-14T23:05:51.454Z,85.38
2023-02-14T23:09:55.343Z,84.98
2023-02-14T23:14:08.680Z,84.90
2023-02-14T23:18:21.397Z,84.71
2023-02-14T23:22:24.527Z,84.51
2023-02-14T23:26:27.656Z,84.07
2023-02-14T23:30:28.106Z,84.21
2023-02-14T23:34:29.806Z,84.24
2023-02-14T23:38:30.034Z,83.87
2023-02-14T23:42:33.168Z,83.90
2023-02-14T23:46:33.669Z,83.44
2023-02-14T23:50:34.124Z,84.19
2023-02-14T23:54:35.377Z,83.74
2023-02-14T23:58:38.398Z,83.11
